Terminal Aerodrome Forecast
Issued by NWS Goodland, KS

Home | Current Version | Previous Version | Text Only | Print | Product List | Glossary On
Versions: 1 2 3 4 5 6 7 8 9 10 11 12 13
000
FTUS43 KGLD 181128 AAB
TAFGLD
TAF AMD
KGLD 181128Z 1811/1912 33020G30KT P6SM SCT020 BKN040
     FM181400 34024G33KT P6SM SKC
     FM182200 31008KT P6SM SKC
     FM190300 24006KT P6SM SKC=

USA.gov is the U.S. government's official web portal to all federal, state and local government web resources and services.